Time;durP1;ratioP1;P1;durP2;ratioP2;P2;SDS_P1;SDS_P2;PMS_P1;PMS_P2;Temp;Humidity;BMP_temperature;BMP_pressure;BME280_temperature;BME280_humidity;BME280_pressure;Samples;Min_cycle;Max_cycle;Signal;HPM_P1;HPM_P2
2023/08/26 00:01:44;;;;;;;11.32;4.38;;;;;;;22.16;82.65;100002.66;4079002;29;20050;-65
2023/08/26 00:03:47;;;;;;;11.63;4.45;;;;;;;22.20;82.17;99993.66;4084367;29;20044;-64
2023/08/26 00:05:50;;;;;;;7.50;5.03;;;;;;;22.18;81.94;99992.00;4062963;29;20410;-64
2023/08/26 00:07:52;;;;;;;11.43;4.13;;;;;;;22.17;82.71;99993.78;4082857;29;20044;-65
2023/08/26 00:09:55;;;;;;;7.63;4.50;;;;;;;22.13;82.68;99973.66;4062780;29;20044;-64
2023/08/26 00:11:58;;;;;;;7.40;3.80;;;;;;;22.16;82.71;99978.81;4079284;29;20068;-64
2023/08/26 00:14:04;;;;;;;7.82;4.78;;;;;;;22.15;83.11;99974.44;4081871;29;20044;-64
2023/08/26 00:16:06;;;;;;;10.30;4.68;;;;;;;22.11;83.41;99970.22;4080290;29;20098;-64
2023/08/26 00:18:11;;;;;;;10.05;4.43;;;;;;;22.12;83.65;99970.16;4062453;29;20079;-65
2023/08/26 00:20:15;;;;;;;7.97;4.68;;;;;;;22.12;84.06;99979.88;4061698;29;20104;-65
2023/08/26 00:22:18;;;;;;;13.68;5.28;;;;;;;22.14;84.06;99967.44;4078668;29;20048;-64
2023/08/26 00:24:21;;;;;;;10.93;4.68;;;;;;;22.14;84.10;99973.59;4078130;29;20043;-65
2023/08/26 00:26:24;;;;;;;11.45;5.03;;;;;;;22.16;83.98;99977.97;4090752;29;20087;-64
2023/08/26 00:28:27;;;;;;;7.78;3.72;;;;;;;22.17;83.65;99982.34;4052444;29;20045;-65
2023/08/26 00:30:31;;;;;;;9.18;4.28;;;;;;;22.17;83.42;99977.91;4066723;29;20506;-65
2023/08/26 00:32:34;;;;;;;;;;;;;;;22.08;83.33;99970.34;4067237;29;20050;-64
2023/08/26 00:34:36;;;;;;;7.35;4.43;;;;;;;22.09;83.62;99974.72;4051224;29;19930;-64
2023/08/26 00:36:39;;;;;;;8.30;4.15;;;;;;;22.09;83.26;99967.66;4066155;29;20048;-64
2023/08/26 00:38:42;;;;;;;10.57;4.50;;;;;;;22.09;83.02;99964.13;4066382;29;20534;-64
2023/08/26 00:40:46;;;;;;;5.55;3.95;;;;;;;22.04;83.27;99972.25;4081154;23;20179;-63
2023/08/26 00:42:49;;;;;;;11.25;5.10;;;;;;;22.04;83.31;99974.06;4067545;29;20040;-63
2023/08/26 00:44:51;;;;;;;10.90;4.72;;;;;;;22.02;83.28;99974.13;4050953;29;20032;-63
2023/08/26 00:46:56;;;;;;;10.30;4.95;;;;;;;22.03;83.64;99975.81;4050564;29;20557;-63
2023/08/26 00:49:00;;;;;;;9.80;5.85;;;;;;;22.01;83.71;99995.34;4050400;29;20179;-63
2023/08/26 00:51:03;;;;;;;8.40;4.83;;;;;;;22.00;83.55;99997.13;4050176;29;20047;-63
2023/08/26 00:53:06;;;;;;;9.63;5.18;;;;;;;21.98;83.55;99991.03;4042908;29;20135;-63
2023/08/26 00:55:10;;;;;;;8.73;4.85;;;;;;;22.00;83.59;99983.03;4050317;29;20452;-63
2023/08/26 00:57:13;;;;;;;7.38;3.90;;;;;;;21.99;83.56;99979.53;4032653;29;20045;-63
2023/08/26 00:59:17;;;;;;;9.32;5.30;;;;;;;22.01;83.75;99982.13;4045351;29;20072;-63
2023/08/26 01:01:20;;;;;;;8.07;4.22;;;;;;;22.01;83.64;99998.84;4049361;29;20036;-63
2023/08/26 01:03:24;;;;;;;10.53;5.17;;;;;;;22.01;83.12;100004.16;4047735;29;20052;-63
2023/08/26 01:05:28;;;;;;;8.77;4.88;;;;;;;22.02;83.59;100013.81;4045488;29;20340;-63
2023/08/26 01:07:31;;;;;;;11.15;5.63;;;;;;;22.00;83.68;100018.28;4045569;29;20045;-63
2023/08/26 01:09:33;;;;;;;13.35;5.00;;;;;;;22.00;83.72;100018.28;4031283;29;20438;-63
2023/08/26 01:11:42;;;;;;;9.25;5.15;;;;;;;22.01;83.62;100019.19;4046551;29;20037;-63
2023/08/26 01:14:07;;;;;;;12.13;5.63;;;;;;;22.02;83.68;100023.53;4029630;29;20136;-63
2023/08/26 01:16:12;;;;;;;;;;;;;;;21.91;84.36;100027.47;4029250;29;20051;-63
2023/08/26 01:18:16;;;;;;;12.85;7.00;;;;;;;21.93;83.97;100023.00;4029513;29;19923;-63
2023/08/26 01:20:21;;;;;;;13.45;11.23;;;;;;;21.99;84.13;100019.25;4045973;29;20049;-63
2023/08/26 01:22:26;;;;;;;10.10;7.82;;;;;;;22.01;84.18;100024.47;4047005;29;20033;-63
2023/08/26 01:24:31;;;;;;;22.13;16.42;;;;;;;22.01;84.10;100019.19;4029941;29;20049;-63
2023/08/26 01:26:34;;;;;;;28.17;24.10;;;;;;;22.00;84.03;100020.09;4046531;29;20411;-64
2023/08/26 01:28:37;;;;;;;27.92;22.15;;;;;;;21.98;84.39;100025.44;4029108;29;20053;-64
2023/08/26 01:30:41;;;;;;;26.77;20.42;;;;;;;22.01;84.28;100019.19;4029866;29;20040;-63
2023/08/26 01:32:51;;;;;;;17.55;15.13;;;;;;;22.03;84.15;100015.53;4046745;29;20068;-64
2023/08/26 01:34:57;;;;;;;17.65;11.77;;;;;;;22.03;84.42;100018.16;4046588;29;20208;-64
2023/08/26 01:37:03;;;;;;;17.70;11.80;;;;;;;22.03;84.52;100025.25;4045308;29;20044;-64
2023/08/26 01:39:06;;;;;;;21.35;14.02;;;;;;;22.05;84.56;100031.34;4030863;29;20069;-64
2023/08/26 01:41:11;;;;;;;22.45;17.73;;;;;;;22.05;84.20;100029.56;4049081;29;20499;-63
2023/08/26 01:43:14;;;;;;;18.63;12.45;;;;;;;22.05;84.55;100031.34;4049640;29;20067;-63
2023/08/26 01:45:17;;;;;;;17.73;15.05;;;;;;;22.04;84.35;100043.72;4047688;29;20049;-64
2023/08/26 01:47:20;;;;;;;21.42;15.02;;;;;;;22.03;84.41;100043.78;4048235;29;20088;-64
2023/08/26 01:49:24;;;;;;;24.95;18.92;;;;;;;22.04;84.27;100040.22;4049325;29;20040;-64
2023/08/26 01:51:27;;;;;;;22.40;17.17;;;;;;;22.00;84.17;100042.13;4050483;29;20047;-64
2023/08/26 01:53:29;;;;;;;18.17;12.27;;;;;;;21.99;83.62;100043.06;4048768;29;20582;-64
2023/08/26 01:55:32;;;;;;;20.65;14.02;;;;;;;22.00;83.21;100042.13;4049422;29;20163;-64
2023/08/26 01:57:37;;;;;;;12.50;11.00;;;;;;;21.97;83.74;100045.75;4032862;29;20087;-64
2023/08/26 01:59:39;;;;;;;17.60;12.23;;;;;;;21.97;83.86;100053.69;4048074;29;20040;-63
2023/08/26 02:01:43;;;;;;;12.20;8.82;;;;;;;21.97;83.56;100045.75;4049158;29;20100;-63
2023/08/26 02:03:45;;;;;;;11.02;7.95;;;;;;;21.99;83.63;100052.78;4049128;29;20108;-63
2023/08/26 02:06:09;;;;;;;14.10;8.43;;;;;;;21.98;83.69;100051.91;4035042;29;20052;-64
2023/08/26 02:08:12;;;;;;;16.58;7.82;;;;;;;21.98;83.09;100054.56;4031742;29;20068;-63
2023/08/26 02:10:15;;;;;;;14.40;7.82;;;;;;;21.95;83.26;100052.91;4047348;29;20064;-63
2023/08/26 02:12:18;;;;;;;12.23;8.10;;;;;;;21.96;83.25;100044.03;4049530;29;20052;-64
2023/08/26 02:14:23;;;;;;;19.05;9.80;;;;;;;21.97;83.30;100043.09;4017791;29;20136;-64
2023/08/26 02:16:26;;;;;;;13.50;7.82;;;;;;;21.95;83.26;100052.91;4032575;29;20064;-63
2023/08/26 02:18:29;;;;;;;13.68;9.40;;;;;;;21.94;83.46;100050.31;4048202;29;20037;-63
2023/08/26 02:20:32;;;;;;;14.45;10.68;;;;;;;21.91;83.43;100058.38;4032944;29;20068;-64
2023/08/26 02:22:35;;;;;;;13.38;9.52;;;;;;;21.90;83.63;100060.19;4032904;29;20049;-63
2023/08/26 02:24:37;;;;;;;18.80;11.85;;;;;;;21.91;83.08;100061.88;4051489;29;20036;-64
2023/08/26 02:26:40;;;;;;;13.40;11.10;;;;;;;21.91;83.16;100059.22;4052151;29;20147;-64
2023/08/26 02:28:43;;;;;;;16.67;9.73;;;;;;;21.91;83.26;100061.03;4052961;29;20132;-64
2023/08/26 02:30:47;;;;;;;10.55;8.10;;;;;;;21.88;83.45;100062.00;4037364;29;20068;-64
2023/08/26 02:32:50;;;;;;;;;;;;;;;21.77;84.02;100064.19;4053393;29;20037;-64
2023/08/26 02:34:53;;;;;;;14.63;8.75;;;;;;;21.79;83.96;100080.88;4037391;29;19976;-63
2023/08/26 02:36:56;;;;;;;11.35;6.75;;;;;;;21.72;83.95;100089.97;4036839;29;20041;-64
2023/08/26 02:38:58;;;;;;;16.63;8.23;;;;;;;21.74;84.11;100091.66;4037057;29;20143;-63
2023/08/26 02:41:02;;;;;;;10.73;6.32;;;;;;;21.77;83.94;100088.88;4036954;29;20076;-64
2023/08/26 02:43:04;;;;;;;10.75;6.93;;;;;;;21.79;84.02;100089.69;4037175;29;20463;-63
2023/08/26 02:45:08;;;;;;;9.30;7.20;;;;;;;21.82;83.94;100094.00;4052620;29;20041;-63
2023/08/26 02:47:12;;;;;;;15.70;7.60;;;;;;;21.82;83.95;100098.44;4021119;29;20045;-64
2023/08/26 02:49:15;;;;;;;11.00;6.68;;;;;;;21.82;83.53;100098.44;4052545;29;20332;-64
2023/08/26 02:51:19;;;;;;;9.68;5.32;;;;;;;21.84;83.42;100086.00;4036337;29;20117;-63
2023/08/26 02:53:22;;;;;;;14.80;7.43;;;;;;;21.83;83.31;100087.78;4021824;29;20132;-63
2023/08/26 02:55:25;;;;;;;11.55;6.38;;;;;;;21.78;83.60;100087.09;4052308;29;20120;-63
2023/08/26 02:57:28;;;;;;;15.35;6.97;;;;;;;21.76;83.52;100105.69;4034087;29;20068;-64
2023/08/26 02:59:31;;;;;;;10.27;5.95;;;;;;;21.76;83.29;100107.47;4059967;29;20036;-63
2023/08/26 03:01:35;;;;;;;15.52;7.15;;;;;;;21.73;83.45;100104.94;4037055;29;20495;-63
2023/08/26 03:03:39;;;;;;;10.07;7.25;;;;;;;21.71;83.46;100112.06;4053731;29;20072;-63
2023/08/26 03:05:42;;;;;;;;;;;;;;;21.62;83.71;100110.63;4052748;29;20052;-64
2023/08/26 03:07:45;;;;;;;16.98;12.98;;;;;;;21.65;83.75;100112.28;4050589;29;19927;-63
2023/08/26 03:09:48;;;;;;;24.00;15.30;;;;;;;21.66;83.43;100125.47;4048344;29;20069;-63
2023/08/26 03:11:51;;;;;;;20.70;14.73;;;;;;;21.66;83.28;100133.41;4050116;29;20071;-63
2023/08/26 03:13:54;;;;;;;17.15;12.48;;;;;;;21.68;83.28;100134.19;4048810;29;20048;-63
2023/08/26 03:15:57;;;;;;;21.48;13.13;;;;;;;21.68;83.39;100128.06;4033767;29;20049;-63
2023/08/26 03:18:00;;;;;;;19.48;13.40;;;;;;;21.70;83.21;100131.50;4030287;29;20132;-63
2023/08/26 03:20:05;;;;;;;23.08;14.30;;;;;;;21.73;83.12;100131.41;4048298;29;20059;-63
2023/08/26 03:22:08;;;;;;;15.57;11.15;;;;;;;21.73;83.07;100126.13;4047390;29;20041;-64
2023/08/26 03:24:12;;;;;;;17.48;14.52;;;;;;;21.71;82.97;100138.53;4031635;29;20411;-63
2023/08/26 03:26:15;;;;;;;27.17;15.55;;;;;;;21.68;83.05;100128.91;4049217;29;20036;-64
2023/08/26 03:28:18;;;;;;;27.00;19.60;;;;;;;21.67;83.22;100131.59;4048230;29;20048;-63
2023/08/26 03:30:21;;;;;;;29.65;19.30;;;;;;;21.68;83.14;100136.00;4031592;29;20044;-63
2023/08/26 03:32:26;;;;;;;30.85;22.48;;;;;;;21.67;83.25;100145.72;4048592;29;20191;-64
2023/08/26 03:34:29;;;;;;;34.30;24.80;;;;;;;21.65;83.20;100154.63;4047853;29;20056;-63
2023/08/26 03:36:33;;;;;;;31.05;21.98;;;;;;;21.62;82.89;100155.59;4030337;29;20045;-63
2023/08/26 03:38:38;;;;;;;29.00;20.30;;;;;;;21.63;82.89;100140.59;4031466;29;20045;-64
2023/08/26 03:40:41;;;;;;;21.38;16.20;;;;;;;21.59;82.65;100145.13;4047626;29;20135;-63
2023/08/26 03:42:44;;;;;;;19.67;10.93;;;;;;;21.56;82.72;100140.81;4032674;29;20044;-64
2023/08/26 03:44:47;;;;;;;14.80;11.38;;;;;;;21.52;82.30;100152.41;4047621;29;20048;-64
2023/08/26 03:46:50;;;;;;;20.70;12.27;;;;;;;21.51;82.25;100153.34;4046302;29;20527;-63
2023/08/26 03:48:54;;;;;;;14.82;10.98;;;;;;;21.49;82.23;100157.78;4047614;29;20068;-64
2023/08/26 03:50:58;;;;;;;20.00;15.38;;;;;;;21.46;82.11;100165.81;4030341;29;20057;-63
2023/08/26 03:53:03;;;;;;;27.45;16.15;;;;;;;21.44;82.08;100162.38;4030112;29;20093;-63
2023/08/26 03:55:06;;;;;;;20.80;15.95;;;;;;;21.43;81.56;100168.59;4045799;29;20065;-63
2023/08/26 03:57:09;;;;;;;22.15;16.15;;;;;;;21.41;81.69;100173.09;4031768;29;20047;-64
2023/08/26 03:59:12;;;;;;;28.00;23.00;;;;;;;21.41;81.63;100170.44;4047361;29;20045;-63
2023/08/26 04:01:17;;;;;;;28.33;21.50;;;;;;;21.36;81.36;100167.97;4047437;29;20151;-63
2023/08/26 04:03:19;;;;;;;21.27;17.77;;;;;;;21.32;81.59;100165.44;4047961;29;20044;-63
2023/08/26 04:05:22;;;;;;;30.77;24.15;;;;;;;21.33;81.48;100156.59;4015499;29;20337;-64
2023/08/26 04:07:25;;;;;;;35.00;25.02;;;;;;;21.30;81.40;100154.06;4031430;29;20053;-63
2023/08/26 04:09:29;;;;;;;37.35;31.02;;;;;;;21.24;81.21;100156.00;4031428;29;20049;-64
2023/08/26 04:11:32;;;;;;;38.08;33.78;;;;;;;21.20;80.92;100159.69;4045942;29;20108;-63
2023/08/26 04:13:36;;;;;;;46.88;37.90;;;;;;;21.19;80.97;100157.97;4031222;29;20037;-63
2023/08/26 04:15:39;;;;;;;40.38;30.40;;;;;;;21.18;81.01;100160.66;4029443;29;20048;-63
2023/08/26 04:17:44;;;;;;;29.35;22.92;;;;;;;21.16;80.77;100162.47;4046303;29;20044;-63
2023/08/26 04:19:47;;;;;;;23.48;14.95;;;;;;;21.08;80.53;100168.03;4046791;29;20051;-63
2023/08/26 04:21:51;;;;;;;16.52;12.77;;;;;;;21.04;80.90;100161.13;4048851;29;20044;-63
2023/08/26 04:23:54;;;;;;;16.47;12.23;;;;;;;21.04;80.63;100158.47;4035482;29;20044;-63
2023/08/26 04:26:02;;;;;;;17.45;11.13;;;;;;;21.04;80.48;100163.75;4051272;29;20845;-64
2023/08/26 04:28:06;;;;;;;16.05;10.30;;;;;;;20.99;80.26;100163.91;4050618;29;20041;-64
2023/08/26 04:30:11;;;;;;;12.35;7.63;;;;;;;20.97;80.34;100168.41;4035604;29;20125;-64
2023/08/26 04:32:14;;;;;;;14.07;10.02;;;;;;;20.95;80.18;100179.94;4052445;29;20056;-64
2023/08/26 04:34:17;;;;;;;12.13;9.00;;;;;;;20.92;80.27;100178.25;4052298;29;20040;-64
2023/08/26 04:36:20;;;;;;;11.27;7.38;;;;;;;20.94;79.80;100179.09;4050871;29;20040;-64
2023/08/26 04:38:23;;;;;;;14.88;7.32;;;;;;;20.89;79.60;100181.00;4050969;29;20045;-64
2023/08/26 04:40:26;;;;;;;13.30;6.50;;;;;;;20.89;79.54;100186.28;4050125;29;20044;-64
2023/08/26 04:42:31;;;;;;;15.35;6.85;;;;;;;20.88;80.07;100197.75;4020248;29;20052;-63
2023/08/26 04:44:33;;;;;;;9.30;5.78;;;;;;;20.83;80.16;100197.91;4056423;29;20132;-63
2023/08/26 04:46:37;;;;;;;11.82;5.50;;;;;;;20.77;79.63;100192.84;4036670;29;20124;-63
2023/08/26 04:48:40;;;;;;;8.50;5.05;;;;;;;20.71;79.32;100196.53;4045767;29;20080;-63
2023/08/26 04:50:44;;;;;;;10.63;4.82;;;;;;;20.66;79.31;100200.19;4044523;29;20044;-63
2023/08/26 04:52:47;;;;;;;7.20;5.40;;;;;;;20.66;79.70;100197.56;4033488;29;20049;-64
2023/08/26 04:54:50;;;;;;;12.00;5.25;;;;;;;20.64;79.41;100205.53;4034738;29;20037;-63
2023/08/26 04:56:53;;;;;;;10.35;5.45;;;;;;;20.65;79.03;100204.63;4034582;29;20135;-63
2023/08/26 04:58:57;;;;;;;9.27;4.80;;;;;;;20.54;78.18;100201.47;4051129;29;20540;-63
2023/08/26 05:01:00;;;;;;;13.82;5.40;;;;;;;20.52;78.12;100201.50;4033869;29;20040;-63
2023/08/26 05:03:04;;;;;;;9.00;5.03;;;;;;;20.54;77.98;100207.59;4050789;29;20048;-63
2023/08/26 05:05:07;;;;;;;12.38;4.47;;;;;;;20.52;77.91;100214.72;4035463;29;20049;-63
2023/08/26 05:07:10;;;;;;;8.57;4.40;;;;;;;20.52;78.35;100212.06;4034691;29;20408;-63
2023/08/26 05:09:13;;;;;;;15.23;5.85;;;;;;;20.56;78.59;100212.84;4038736;29;20040;-63
2023/08/26 05:11:16;;;;;;;8.95;5.63;;;;;;;20.59;78.67;100220.69;4029375;29;20057;-62
2023/08/26 05:13:19;;;;;;;9.85;5.22;;;;;;;20.60;79.04;100224.16;4030468;29;20602;-63
2023/08/26 05:15:26;;;;;;;9.93;5.55;;;;;;;20.64;78.63;100218.75;4034717;29;20072;-63
2023/08/26 05:17:29;;;;;;;9.80;5.63;;;;;;;20.66;78.61;100222.25;4033475;29;20525;-63
2023/08/26 05:19:32;;;;;;;9.85;4.45;;;;;;;20.67;79.05;100225.75;4050785;29;20132;-63
2023/08/26 05:21:35;;;;;;;11.45;5.63;;;;;;;20.68;78.15;100217.78;4033131;29;20073;-63
2023/08/26 05:23:38;;;;;;;10.52;6.05;;;;;;;20.67;78.33;100218.69;4033360;29;20107;-63
2023/08/26 05:25:44;;;;;;;10.93;5.47;;;;;;;20.70;78.58;100218.56;4048063;29;20056;-63
2023/08/26 05:27:47;;;;;;;7.78;4.95;;;;;;;20.69;79.08;100218.63;4030926;29;20301;-63
2023/08/26 05:29:54;;;;;;;9.60;5.00;;;;;;;20.71;79.30;100214.19;4049742;29;20041;-63
2023/08/26 05:31:59;;;;;;;14.77;6.47;;;;;;;20.73;79.43;100225.53;4033318;29;20057;-63
2023/08/26 05:34:02;;;;;;;10.52;4.57;;;;;;;20.67;79.37;100231.03;4049487;29;20036;-63
2023/08/26 05:36:05;;;;;;;5.97;4.22;;;;;;;20.68;79.50;100230.13;4017448;29;20505;-63
2023/08/26 05:38:09;;;;;;;12.88;5.00;;;;;;;20.67;79.48;100223.97;4032598;29;20120;-63
2023/08/26 05:40:13;;;;;;;9.63;4.50;;;;;;;20.66;79.19;100229.25;4047363;29;20051;-63
2023/08/26 05:42:17;;;;;;;7.43;5.20;;;;;;;20.68;79.37;100238.91;4033432;29;20109;-63
2023/08/26 05:44:19;;;;;;;11.45;5.85;;;;;;;20.70;79.49;100239.72;4033473;29;20135;-63
2023/08/26 05:46:22;;;;;;;9.95;5.57;;;;;;;20.72;79.31;100243.19;4048927;29;20495;-63
2023/08/26 05:48:26;;;;;;;12.65;5.25;;;;;;;20.69;79.69;100248.56;4032747;29;21702;-63
2023/08/26 05:50:29;;;;;;;6.95;5.15;;;;;;;20.72;80.00;100253.75;4048067;29;20100;-63
2023/08/26 05:52:32;;;;;;;6.80;5.15;;;;;;;20.75;79.95;100250.16;4016833;29;20049;-64
2023/08/26 05:54:35;;;;;;;9.20;4.40;;;;;;;20.76;79.75;100257.16;4032061;29;20097;-63
2023/08/26 05:56:39;;;;;;;;;;;;;;;20.72;79.97;100264.31;4048628;29;20104;-63
2023/08/26 05:58:42;;;;;;;8.77;4.72;;;;;;;20.74;79.61;100261.63;4048706;29;19985;-63
2023/08/26 06:00:45;;;;;;;8.60;4.93;;;;;;;20.76;79.08;100270.34;4049014;29;20040;-63
2023/08/26 06:02:48;;;;;;;8.52;4.15;;;;;;;20.80;79.39;100261.44;4032449;29;20055;-63
2023/08/26 06:04:53;;;;;;;9.10;4.53;;;;;;;20.83;79.17;100269.25;4049139;29;20069;-63
2023/08/26 06:06:57;;;;;;;7.20;4.40;;;;;;;20.81;78.70;100264.94;4048504;29;20064;-63
2023/08/26 06:09:00;;;;;;;11.82;4.07;;;;;;;20.81;78.00;100268.44;4032836;29;20045;-63
2023/08/26 06:11:03;;;;;;;8.02;3.33;;;;;;;20.78;76.07;100273.84;4050993;29;20096;-63
2023/08/26 06:13:06;;;;;;;8.15;3.75;;;;;;;20.77;75.45;100280.03;4033418;29;20048;-64
2023/08/26 06:15:09;;;;;;;5.22;3.25;;;;;;;20.78;75.57;100288.81;4033546;29;20173;-63
2023/08/26 06:17:12;;;;;;;8.95;3.25;;;;;;;20.77;75.37;100274.75;4049679;29;20127;-63
2023/08/26 06:19:15;;;;;;;6.65;2.88;;;;;;;20.77;74.89;100277.38;4032106;29;20140;-63
2023/08/26 06:21:19;;;;;;;7.60;3.03;;;;;;;20.71;73.61;100282.84;4035233;29;20534;-63
2023/08/26 06:23:22;;;;;;;8.07;3.03;;;;;;;20.67;73.07;100295.28;4048716;29;20044;-63
2023/08/26 06:25:25;;;;;;;7.13;2.70;;;;;;;20.63;72.35;100293.59;4048966;29;20048;-63
2023/08/26 06:27:28;;;;;;;6.28;2.40;;;;;;;20.57;71.20;100302.59;4048142;29;20041;-63
2023/08/26 06:29:31;;;;;;;4.53;2.35;;;;;;;20.53;70.33;100306.25;4023268;29;20051;-63
2023/08/26 06:31:34;;;;;;;5.07;2.40;;;;;;;20.54;70.74;100312.38;4034019;29;20033;-63
2023/08/26 06:33:37;;;;;;;6.95;2.75;;;;;;;20.54;71.87;100320.31;4051446;29;20045;-62
2023/08/26 06:35:46;;;;;;;6.72;2.88;;;;;;;20.58;73.38;100317.53;4032710;29;20045;-58
2023/08/26 06:37:50;;;;;;;6.15;2.88;;;;;;;20.74;73.50;100315.31;4047324;29;20051;-58
2023/08/26 06:39:53;;;;;;;6.28;2.88;;;;;;;20.90;72.96;100315.72;4049100;29;20063;-59
2023/08/26 06:41:57;;;;;;;5.15;2.72;;;;;;;21.06;72.35;100316.09;4086273;23;20039;-60
2023/08/26 06:44:03;;;;;;;7.97;2.40;;;;;;;21.14;71.36;100307.91;4093373;28;20085;-60
2023/08/26 06:46:07;;;;;;;4.60;2.05;;;;;;;21.20;71.27;100299.81;4111578;28;20441;-60
2023/08/26 06:48:10;;;;;;;7.32;2.58;;;;;;;21.24;71.46;100304.06;4092851;29;20046;-59
2023/08/26 06:50:13;;;;;;;6.28;2.97;;;;;;;21.32;71.53;100313.53;4095294;29;20051;-60
2023/08/26 06:52:16;;;;;;;4.72;2.30;;;;;;;21.35;71.25;100311.66;4086836;29;20052;-61
2023/08/26 06:54:20;;;;;;;5.03;2.45;;;;;;;21.42;71.09;100314.94;4090600;29;20525;-60
2023/08/26 06:56:23;;;;;;;7.85;1.98;;;;;;;21.39;70.51;100309.75;4073444;29;20123;-60
2023/08/26 06:58:26;;;;;;;6.40;2.35;;;;;;;21.30;69.80;100296.84;4088929;29;20175;-60
2023/08/26 07:00:29;;;;;;;4.53;2.05;;;;;;;21.39;70.13;100296.53;4089212;29;20039;-59
2023/08/26 07:02:32;;;;;;;6.72;2.65;;;;;;;21.49;70.13;100287.38;4080818;29;20079;-60
2023/08/26 07:04:35;;;;;;;6.03;2.53;;;;;;;21.51;69.66;100293.53;4087744;29;20040;-60
2023/08/26 07:06:38;;;;;;;7.97;2.35;;;;;;;21.51;69.68;100290.88;4079480;28;20130;-60
2023/08/26 07:08:41;;;;;;;3.20;1.77;;;;;;;21.52;69.44;100291.75;4087057;28;20032;-60
2023/08/26 07:10:45;;;;;;;8.50;2.30;;;;;;;21.47;68.46;100289.22;4076476;29;20126;-59
2023/08/26 07:12:48;;;;;;;;;;;;;;;21.31;66.03;100294.16;4077492;29;20039;-59
2023/08/26 07:14:51;;;;;;;4.22;2.17;;;;;;;21.23;66.30;100294.41;4080728;29;20323;-60
2023/08/26 07:16:54;;;;;;;3.47;1.92;;;;;;;21.21;65.92;100293.59;4076652;29;20520;-64
2023/08/26 07:18:57;;;;;;;5.70;1.90;;;;;;;21.22;65.69;100290.03;4075506;29;20034;-64
2023/08/26 07:21:00;;;;;;;6.78;1.90;;;;;;;21.28;65.41;100292.47;4075202;29;20557;-60
2023/08/26 07:23:03;;;;;;;4.78;2.10;;;;;;;21.31;64.54;100298.59;4080472;29;20059;-61
2023/08/26 07:25:06;;;;;;;3.83;1.58;;;;;;;21.23;64.45;100294.41;4079362;29;20548;-62
2023/08/26 07:27:10;;;;;;;6.70;2.20;;;;;;;21.28;65.38;100283.69;4077773;29;20039;-63
2023/08/26 07:29:13;;;;;;;;;;;;;;;21.26;65.25;100282.84;4080893;29;20485;-63
2023/08/26 07:31:16;;;;;;;2.28;1.50;;;;;;;21.33;66.19;100283.53;4079853;29;20021;-63
2023/08/26 07:33:19;;;;;;;5.45;2.20;;;;;;;21.44;66.85;100278.75;4079807;29;20433;-62
2023/08/26 07:35:22;;;;;;;5.47;2.33;;;;;;;21.48;67.75;100285.69;4082022;29;20058;-62
2023/08/26 07:37:25;;;;;;;4.57;2.00;;;;;;;21.44;66.95;100289.34;4060415;29;20055;-62
2023/08/26 07:39:30;;;;;;;3.70;2.22;;;;;;;21.43;66.88;100299.03;4092582;29;20039;-73
2023/08/26 07:41:33;;;;;;;3.97;1.83;;;;;;;21.33;67.84;100297.59;4093749;29;20130;-73
2023/08/26 07:43:37;;;;;;;4.88;2.22;;;;;;;21.25;68.32;100307.59;4078307;29;20098;-73
2023/08/26 07:45:40;;;;;;;7.50;2.67;;;;;;;21.23;68.11;100317.34;4078755;29;20102;-73
2023/08/26 07:47:43;;;;;;;3.30;1.67;;;;;;;21.22;67.95;100312.97;4077058;29;20102;-72
2023/08/26 07:49:49;;;;;;;7.40;1.98;;;;;;;21.16;67.84;100306.09;4078823;29;20123;-73
2023/08/26 07:51:52;;;;;;;4.72;2.10;;;;;;;20.99;67.29;100308.44;4080819;29;20474;-65
2023/08/26 07:53:55;;;;;;;11.98;2.35;;;;;;;20.97;67.47;100308.47;4095257;29;20047;-65
2023/08/26 07:55:58;;;;;;;7.20;2.05;;;;;;;20.91;67.16;100301.59;4080090;29;20429;-63
2023/08/26 07:58:00;;;;;;;3.42;1.60;;;;;;;20.85;66.96;100298.28;4077666;29;20075;-67
2023/08/26 08:00:06;;;;;;;4.43;1.63;;;;;;;20.79;67.15;100307.25;4095773;29;20054;-68
2023/08/26 08:02:15;;;;;;;8.02;2.25;;;;;;;20.74;67.52;100310.03;4095232;28;20633;-68
2023/08/26 08:04:17;;;;;;;3.90;1.88;;;;;;;20.73;67.68;100320.66;4081855;29;20106;-67
2023/08/26 08:06:20;;;;;;;3.53;1.80;;;;;;;20.70;67.85;100318.97;4080585;29;20138;-67
2023/08/26 08:08:24;;;;;;;6.63;1.90;;;;;;;20.64;67.60;100315.63;4078999;29;20490;-64
2023/08/26 08:10:27;;;;;;;6.75;1.60;;;;;;;20.56;65.67;100323.78;4075945;29;20047;-66
2023/08/26 08:12:30;;;;;;;1.73;1.30;;;;;;;20.48;62.96;100323.97;4065437;29;20070;-66
2023/08/26 08:14:33;;;;;;;4.50;1.50;;;;;;;20.43;63.46;100314.47;4081292;29;20075;-65
2023/08/26 08:16:37;;;;;;;6.70;2.15;;;;;;;20.43;62.66;100315.34;4079390;29;20466;-66
2023/08/26 08:18:40;;;;;;;3.55;1.60;;;;;;;20.41;63.79;100322.44;4076387;29;20048;-66
2023/08/26 08:20:43;;;;;;;5.60;1.90;;;;;;;20.40;63.73;100326.00;4075078;29;20400;-65
2023/08/26 08:22:46;;;;;;;3.42;1.60;;;;;;;20.45;63.98;100332.00;4078914;29;20131;-65
2023/08/26 08:24:55;;;;;;;2.85;1.33;;;;;;;20.50;63.36;100326.56;4081544;29;20183;-65
2023/08/26 08:26:59;;;;;;;4.07;1.83;;;;;;;20.57;65.08;100336.94;4063583;29;20062;-67
2023/08/26 08:29:05;;;;;;;6.20;2.15;;;;;;;20.63;66.60;100332.38;4080690;29;20063;-65
2023/08/26 08:31:08;;;;;;;3.45;1.80;;;;;;;20.65;66.65;100333.22;4078095;29;20051;-65
2023/08/26 08:33:13;;;;;;;10.20;1.90;;;;;;;20.72;66.44;100332.13;4080191;29;20139;-65
2023/08/26 08:35:16;;;;;;;3.92;1.60;;;;;;;20.75;65.90;100329.41;4080568;29;20039;-65
2023/08/26 08:37:19;;;;;;;4.70;1.70;;;;;;;20.78;65.45;100317.88;4080439;29;20466;-65
2023/08/26 08:39:21;;;;;;;7.18;2.20;;;;;;;20.80;65.17;100316.91;4079377;29;20766;-65
2023/08/26 08:41:24;;;;;;;6.88;2.00;;;;;;;20.85;64.31;100314.13;4095253;29;20106;-65
2023/08/26 08:43:30;;;;;;;5.75;1.98;;;;;;;20.79;64.27;100315.16;4079271;29;20078;-65
2023/08/26 08:45:34;;;;;;;7.50;1.60;;;;;;;20.76;64.47;100312.63;4086829;28;20051;-65
2023/08/26 08:47:38;;;;;;;4.53;1.77;;;;;;;20.72;64.83;100313.63;4079963;29;20417;-65
2023/08/26 08:49:44;;;;;;;3.10;1.52;;;;;;;20.67;64.05;100312.91;4076765;29;20039;-65
2023/08/26 08:51:48;;;;;;;2.40;1.30;;;;;;;20.59;63.01;100321.03;4081085;29;20067;-65
2023/08/26 08:53:52;;;;;;;4.03;1.10;;;;;;;20.54;61.43;100326.44;4072484;29;20062;-65
2023/08/26 08:55:56;;;;;;;4.07;1.40;;;;;;;20.51;60.49;100323.88;4093434;29;20047;-65
2023/08/26 08:58:00;;;;;;;6.20;1.80;;;;;;;20.53;61.53;100330.00;4076900;29;20480;-65
2023/08/26 09:00:04;;;;;;;4.13;1.30;;;;;;;20.60;61.48;100332.47;4077748;29;20090;-65
2023/08/26 09:02:07;;;;;;;3.42;1.55;;;;;;;20.64;61.69;100329.69;4083272;29;20044;-65
2023/08/26 09:04:10;;;;;;;3.10;1.33;;;;;;;20.68;61.93;100330.50;4085810;29;20050;-65
2023/08/26 09:06:15;;;;;;;5.43;1.58;;;;;;;20.72;61.11;100319.78;4084350;29;20043;-64
2023/08/26 09:08:29;;;;;;;3.33;1.42;;;;;;;20.77;60.13;100314.38;4078280;29;20457;-64
2023/08/26 09:10:33;;;;;;;;;;;;;;;20.80;59.72;100319.56;4080837;29;20482;-65
2023/08/26 09:12:35;;;;;;;8.38;2.67;;;;;;;20.96;59.96;100319.09;4093357;29;19929;-65
2023/08/26 09:14:38;;;;;;;3.28;1.30;;;;;;;21.06;58.61;100315.25;4084986;29;20054;-65
2023/08/26 09:16:43;;;;;;;1.77;1.10;;;;;;;21.16;59.67;100310.50;4078660;29;20575;-64
2023/08/26 09:18:46;;;;;;;3.47;1.30;;;;;;;21.20;59.65;100309.50;4094569;29;20051;-65
2023/08/26 09:20:49;;;;;;;6.35;1.48;;;;;;;21.25;59.23;100308.44;4091894;28;20039;-65
2023/08/26 09:23:03;;;;;;;3.08;1.45;;;;;;;21.26;59.51;100304.00;4091424;28;20073;-64
2023/08/26 09:25:06;;;;;;;4.22;1.42;;;;;;;21.25;59.83;100300.50;4077265;29;21525;-65
2023/08/26 09:27:09;;;;;;;4.15;1.35;;;;;;;21.27;59.66;100301.34;4078933;29;20218;-64
2023/08/26 09:29:15;;;;;;;3.10;1.10;;;;;;;21.29;58.46;100293.38;4082968;29;20560;-64
2023/08/26 09:31:20;;;;;;;2.13;1.42;;;;;;;21.31;58.48;100290.66;4076470;28;20039;-64
2023/08/26 09:33:23;;;;;;;3.17;1.10;;;;;;;21.37;57.38;100282.53;4079164;29;20070;-65